Bastian Bay — WDE3709 — position and weather

sailwx.info

Track history (hours):
 
Tides and Currents Weather Stations Pressure Air Temp Water Temp Dewpoint Dewpoint Depression Visibility Wind Speed Wind Dir Waves Ship Positions

Bastian Bay

Owner: Clean Gulf Associates, New Orleans, LA. More information available from US FCC via Universal Licensing System and Coast Guard Vessel Documentation Center.

Last reported at 2018-Jan-30 17:39 UTC. Time now 2018-Feb-25 23:55 UTC.
Position N 30°13' W 093°15'.
Warning: this ship's position is 26 days out of date.

Length 14 m.

Type: Pleasure craft. MMSI: 367343120.

Date/timePositionNaut miles runAvg speedWind from/ knotsBaromVisibWave heightAir tempDewpointWater temp
2018-Jan-30 17:39N 30°13' W 093°15'0 0.1
2018-Jan-30 17:30N 30°13' W 093°15'3 6.4
2018-Jan-30 17:01N 30°11' W 093°18'3 5.0
2018-Jan-30 16:31N 30°09' W 093°20'3 5.7
2018-Jan-30 16:01N 30°07' W 093°20'2 4.9
2018-Jan-30 15:31N 30°06' W 093°17'  
2018-Jan-22 15:48N 30°06' W 093°17'0 0.1
2018-Jan-22 15:30N 30°06' W 093°17'3 5.2
2018-Jan-22 15:00N 30°07' W 093°20'4 7.6
2018-Jan-22 14:30N 30°11' W 093°19'4 8.2
2018-Jan-22 14:00N 30°13' W 093°15'  
Track history (hours):
 
Tides and Currents Weather Stations Pressure Air Temp Water Temp Dewpoint Dewpoint Depression Visibility Wind Speed Wind Dir Waves Ship Positions

Bastian Bay

Owner: Clean Gulf Associates, New Orleans, LA. More information available from US FCC via Universal Licensing System and Coast Guard Vessel Documentation Center.

Last reported at 2018-Jan-30 17:39 UTC. Time now 2018-Feb-25 23:55 UTC.
Position N 30°13' W 093°15'.
Warning: this ship's position is 26 days out of date.

Length 14 m.

Type: Pleasure craft. MMSI: 367343120.

Date/timePositionNaut miles runAvg speedWind from/ knotsBaromVisibWave heightAir tempDewpointWater temp
2018-Jan-30 17:39N 30°13' W 093°15'0 0.1
2018-Jan-30 17:30N 30°13' W 093°15'3 6.4
2018-Jan-30 17:01N 30°11' W 093°18'3 5.0
2018-Jan-30 16:31N 30°09' W 093°20'3 5.7
2018-Jan-30 16:01N 30°07' W 093°20'2 4.9
2018-Jan-30 15:31N 30°06' W 093°17'  
2018-Jan-22 15:48N 30°06' W 093°17'0 0.1
2018-Jan-22 15:30N 30°06' W 093°17'3 5.2
2018-Jan-22 15:00N 30°07' W 093°20'4 7.6
2018-Jan-22 14:30N 30°11' W 093°19'4 8.2
2018-Jan-22 14:00N 30°13' W 093°15'  

Dump ship's entire track history